createdAt,value
2018-12-19T00:04:54.452Z,8.73
2018-12-19T00:09:57.661Z,7.97
2018-12-19T00:15:00.892Z,7.00
2018-12-19T00:20:18.849Z,8.47
2018-12-19T00:25:22.098Z,6.73
2018-12-19T00:30:25.304Z,7.20
2018-12-19T00:35:28.577Z,6.63
2018-12-19T00:40:31.767Z,7.13
2018-12-19T00:45:34.946Z,6.87
2018-12-19T00:50:38.213Z,6.83
2018-12-19T00:55:41.434Z,6.27
2018-12-19T01:00:44.687Z,6.10
2018-12-19T01:05:47.885Z,5.43
2018-12-19T01:10:51.102Z,6.77
2018-12-19T01:15:54.285Z,5.87
2018-12-19T01:20:57.493Z,6.23
2018-12-19T01:26:00.669Z,6.27
2018-12-19T01:31:03.928Z,5.23
2018-12-19T01:36:07.119Z,5.97
2018-12-19T01:41:10.302Z,5.60
2018-12-19T01:46:13.520Z,5.27
2018-12-19T01:51:16.745Z,5.57
2018-12-19T01:56:19.969Z,6.00
2018-12-19T02:01:23.200Z,6.77
2018-12-19T02:06:26.368Z,6.87
2018-12-19T02:11:29.582Z,6.90
2018-12-19T02:16:32.784Z,6.30
2018-12-19T02:21:35.996Z,6.97
2018-12-19T02:26:39.213Z,6.93
2018-12-19T02:31:42.399Z,6.63
2018-12-19T02:36:45.606Z,6.27
2018-12-19T02:41:48.824Z,5.80
2018-12-19T02:46:52.020Z,5.93
2018-12-19T02:51:55.240Z,5.50
2018-12-19T02:56:58.450Z,5.37
2018-12-19T03:02:01.698Z,4.83
2018-12-19T03:07:05.013Z,5.27
2018-12-19T03:12:08.177Z,5.40
2018-12-19T03:17:11.381Z,4.53
2018-12-19T03:22:14.586Z,5.00
2018-12-19T03:27:17.798Z,4.73
2018-12-19T03:32:21.010Z,4.83
2018-12-19T03:37:24.185Z,4.20
2018-12-19T03:42:27.409Z,4.23
2018-12-19T03:47:30.630Z,4.63
2018-12-19T03:52:33.824Z,3.95
2018-12-19T03:57:37.360Z,4.90
2018-12-19T04:02:40.535Z,3.60
2018-12-19T04:07:43.729Z,4.43
2018-12-19T04:12:46.894Z,4.37
2018-12-19T04:17:50.109Z,5.23
2018-12-19T04:22:53.286Z,5.33
2018-12-19T04:27:56.489Z,4.77
2018-12-19T04:32:59.777Z,5.30
2018-12-19T04:38:03.004Z,5.40
2018-12-19T04:43:06.247Z,5.27
2018-12-19T04:48:09.440Z,5.67
2018-12-19T04:53:14.546Z,6.03
2018-12-19T04:58:18.006Z,5.70
2018-12-19T05:03:21.348Z,5.03
2018-12-19T05:08:24.584Z,5.43
2018-12-19T05:13:27.748Z,6.03
2018-12-19T05:18:31.055Z,8.73
2018-12-19T05:23:34.237Z,6.67
2018-12-19T05:28:37.416Z,6.30
2018-12-19T05:33:40.589Z,6.80
2018-12-19T05:38:43.788Z,7.63
2018-12-19T05:43:46.992Z,6.43
2018-12-19T05:48:50.292Z,6.13
2018-12-19T05:53:53.486Z,6.23
2018-12-19T05:58:56.653Z,6.77
2018-12-19T06:03:59.804Z,6.70
2018-12-19T06:09:04.133Z,7.33
2018-12-19T06:14:07.340Z,5.73
2018-12-19T06:19:10.571Z,5.70
2018-12-19T06:24:13.754Z,5.37
2018-12-19T06:29:16.936Z,5.97
2018-12-19T06:34:20.095Z,7.03
2018-12-19T06:39:23.410Z,12.77
2018-12-19T06:44:26.580Z,11.43
2018-12-19T06:49:29.753Z,12.33
2018-12-19T06:54:32.946Z,12.27
2018-12-19T06:59:36.172Z,13.87
2018-12-19T07:04:39.357Z,11.47
2018-12-19T07:09:42.598Z,9.33
2018-12-19T07:14:46.388Z,8.93
2018-12-19T07:19:49.859Z,8.13
2018-12-19T07:24:53.038Z,8.80
2018-12-19T07:29:56.214Z,7.57
2018-12-19T07:34:59.412Z,9.73
2018-12-19T07:40:02.918Z,7.97
2018-12-19T07:45:06.073Z,7.60
2018-12-19T07:50:11.041Z,7.07
2018-12-19T07:55:14.197Z,7.13
2018-12-19T08:00:17.470Z,6.90
2018-12-19T08:05:25.965Z,7.93
2018-12-19T08:10:25.901Z,6.37
2018-12-19T08:15:29.101Z,6.63
2018-12-19T08:20:32.272Z,8.67
2018-12-19T08:25:35.502Z,8.73
2018-12-19T08:30:38.709Z,7.93
2018-12-19T08:35:41.945Z,8.90
2018-12-19T08:40:45.144Z,9.20
2018-12-19T08:45:48.986Z,7.50
2018-12-19T08:50:52.174Z,6.53
2018-12-19T08:55:55.340Z,7.33
2018-12-19T09:00:58.511Z,6.40
2018-12-19T09:06:01.801Z,6.83
2018-12-19T09:11:05.849Z,6.23
2018-12-19T09:16:09.600Z,6.77
2018-12-19T09:21:12.852Z,6.67
2018-12-19T09:26:16.097Z,7.13
2018-12-19T09:31:19.452Z,6.27
2018-12-19T09:36:22.604Z,6.73
2018-12-19T09:41:25.780Z,6.70
2018-12-19T09:46:28.971Z,10.10
2018-12-19T09:51:32.258Z,7.47
2018-12-19T09:56:35.496Z,7.93
2018-12-19T10:01:39.759Z,6.63
2018-12-19T10:06:42.922Z,6.83
2018-12-19T10:11:46.082Z,6.00
2018-12-19T10:16:49.250Z,5.93
2018-12-19T10:21:52.458Z,4.87
2018-12-19T10:26:55.666Z,5.97
2018-12-19T10:31:58.852Z,5.10
2018-12-19T10:37:02.096Z,4.97
2018-12-19T10:42:05.272Z,5.50
2018-12-19T10:47:08.448Z,5.40
2018-12-19T10:52:11.623Z,4.70
2018-12-19T10:57:14.778Z,5.10
2018-12-19T11:02:18.028Z,4.90
2018-12-19T11:07:21.456Z,4.40
2018-12-19T11:12:25.936Z,4.27
2018-12-19T11:17:29.128Z,4.37
2018-12-19T11:22:33.121Z,4.73
2018-12-19T11:27:36.409Z,4.57
2018-12-19T11:32:39.573Z,4.17
2018-12-19T11:37:42.737Z,4.47
2018-12-19T11:42:45.917Z,4.60
2018-12-19T11:47:49.112Z,4.63
2018-12-19T11:52:52.274Z,4.27
2018-12-19T12:02:57.022Z,4.80
2018-12-19T12:08:00.280Z,4.60
2018-12-19T12:13:03.521Z,4.30
2018-12-19T12:18:06.722Z,4.60
2018-12-19T12:23:09.908Z,4.47
2018-12-19T12:28:13.421Z,4.07
2018-12-19T12:33:16.688Z,4.17
2018-12-19T12:38:20.001Z,4.23
2018-12-19T12:43:23.137Z,4.33
2018-12-19T12:48:26.292Z,3.83
2018-12-19T12:53:29.446Z,3.97
2018-12-19T12:58:32.618Z,4.80
2018-12-19T13:03:35.757Z,4.13
2018-12-19T13:08:38.908Z,4.60
2018-12-19T13:13:42.045Z,5.03
2018-12-19T13:18:45.215Z,4.70
2018-12-19T13:23:49.056Z,5.27
2018-12-19T13:28:52.238Z,4.80
2018-12-19T13:33:55.425Z,4.33
2018-12-19T13:38:58.559Z,4.67
2018-12-19T13:44:01.757Z,4.97
2018-12-19T13:49:05.061Z,5.33
2018-12-19T13:54:08.188Z,4.60
2018-12-19T13:59:11.353Z,4.93
2018-12-19T14:04:14.566Z,5.03
2018-12-19T14:09:17.790Z,5.23
2018-12-19T14:14:20.992Z,5.97
2018-12-19T14:19:24.144Z,5.80
2018-12-19T14:24:27.309Z,5.57
2018-12-19T14:29:30.474Z,5.70
2018-12-19T14:34:33.638Z,6.27
2018-12-19T14:39:36.834Z,6.53
2018-12-19T14:44:40.037Z,6.30
2018-12-19T14:49:43.219Z,6.03
2018-12-19T14:54:46.391Z,6.47
2018-12-19T14:59:49.561Z,6.83
2018-12-19T15:04:52.745Z,6.90
2018-12-19T15:09:55.894Z,6.33
2018-12-19T15:14:59.107Z,6.40
2018-12-19T15:20:02.260Z,5.97
2018-12-19T15:25:06.322Z,5.55
2018-12-19T15:30:09.608Z,6.60
2018-12-19T15:35:12.892Z,6.07
2018-12-19T15:40:16.065Z,7.30
2018-12-19T15:45:19.244Z,5.83
2018-12-19T15:50:22.428Z,6.40
2018-12-19T15:55:25.605Z,6.17
2018-12-19T16:00:28.994Z,7.13
2018-12-19T16:05:32.241Z,6.97
2018-12-19T16:10:35.480Z,8.03
2018-12-19T16:15:38.667Z,7.57
2018-12-19T16:20:41.853Z,6.97
2018-12-19T16:25:45.060Z,7.33
2018-12-19T16:30:48.238Z,6.70
2018-12-19T16:35:51.442Z,6.37
2018-12-19T16:40:54.620Z,6.67
2018-12-19T16:45:57.772Z,7.13
2018-12-19T16:51:00.933Z,6.37
2018-12-19T16:56:04.112Z,6.67
2018-12-19T17:01:07.512Z,10.40
2018-12-19T17:06:10.761Z,6.43
2018-12-19T17:11:14.028Z,6.53
2018-12-19T17:16:17.276Z,5.87
2018-12-19T17:21:20.436Z,5.90
2018-12-19T17:26:23.585Z,6.43
2018-12-19T17:31:26.780Z,6.30
2018-12-19T17:36:29.960Z,7.13
2018-12-19T17:41:33.134Z,6.33
2018-12-19T17:46:36.332Z,8.87
2018-12-19T17:51:39.603Z,7.03
2018-12-19T17:56:42.781Z,7.27
2018-12-19T18:01:46.100Z,6.23
2018-12-19T18:06:49.324Z,6.97
2018-12-19T18:11:52.508Z,7.90
2018-12-19T18:16:55.705Z,6.80
2018-12-19T18:21:58.876Z,7.40
2018-12-19T18:27:02.070Z,7.50
2018-12-19T18:32:05.277Z,7.20
2018-12-19T18:37:08.511Z,7.73
2018-12-19T18:42:11.734Z,7.80
2018-12-19T18:47:14.901Z,6.97
2018-12-19T18:52:18.171Z,9.60
2018-12-19T18:57:21.351Z,8.00
2018-12-19T19:02:24.572Z,8.13
2018-12-19T19:07:27.853Z,8.53
2018-12-19T19:12:31.142Z,8.00
2018-12-19T19:17:34.332Z,8.47
2018-12-19T19:22:37.535Z,7.87
2018-12-19T19:27:40.692Z,8.07
2018-12-19T19:32:43.864Z,9.73
2018-12-19T19:37:47.025Z,8.70
2018-12-19T19:42:50.304Z,8.63
2018-12-19T19:47:53.473Z,9.17
2018-12-19T19:52:56.654Z,8.93
2018-12-19T19:58:02.945Z,13.90
2018-12-19T20:03:06.097Z,9.57
2018-12-19T20:08:09.253Z,9.00
2018-12-19T20:13:15.240Z,8.43
2018-12-19T20:23:34.695Z,9.23
2018-12-19T20:28:38.879Z,8.63
2018-12-19T20:33:42.353Z,8.67
2018-12-19T20:44:15.013Z,8.37
2018-12-19T20:49:19.897Z,8.93
2018-12-19T20:54:23.419Z,9.37
2018-12-19T20:59:28.823Z,8.23
2018-12-19T21:04:33.741Z,8.97
2018-12-19T21:09:36.913Z,8.83
2018-12-19T21:14:41.373Z,9.07
2018-12-19T21:19:46.597Z,8.80
2018-12-19T21:24:49.782Z,9.27
2018-12-19T21:29:55.043Z,8.80
2018-12-19T21:34:59.142Z,8.63
2018-12-19T21:40:10.233Z,8.83
2018-12-19T21:45:13.980Z,8.50
2018-12-19T21:50:27.416Z,8.37
2018-12-19T21:55:32.733Z,8.30
2018-12-19T22:00:41.483Z,8.87
2018-12-19T22:05:48.709Z,8.70
2018-12-19T22:10:52.224Z,8.10
2018-12-19T22:15:55.636Z,8.13
2018-12-19T22:20:58.878Z,8.67
2018-12-19T22:26:02.481Z,8.77
2018-12-19T22:31:05.829Z,8.50
2018-12-19T22:36:10.425Z,9.23
2018-12-19T22:41:13.841Z,9.57
2018-12-19T22:46:17.823Z,9.07
2018-12-19T22:51:21.001Z,9.37
2018-12-19T22:56:24.181Z,8.47
2018-12-19T23:01:34.327Z,9.10
2018-12-19T23:06:37.658Z,9.17
2018-12-19T23:11:40.901Z,9.13
2018-12-19T23:16:45.196Z,9.67
2018-12-19T23:21:49.303Z,9.03
2018-12-19T23:26:55.591Z,9.23
2018-12-19T23:32:02.512Z,9.47
2018-12-19T23:37:06.458Z,8.97
2018-12-19T23:42:10.398Z,10.00
2018-12-19T23:47:14.523Z,9.00
2018-12-19T23:52:18.805Z,9.63
2018-12-19T23:57:23.829Z,9.77
